createdAt,value
2024-03-02T00:01:38.403Z,46.25
2024-03-02T00:04:08.164Z,44.17
2024-03-02T00:06:36.390Z,44.55
2024-03-02T00:09:04.108Z,45.60
2024-03-02T00:11:31.337Z,48.40
2024-03-02T00:13:58.419Z,45.08
2024-03-02T00:16:30.829Z,49.08
2024-03-02T00:18:58.195Z,45.50
2024-03-02T00:21:29.092Z,46.35
2024-03-02T00:23:56.080Z,47.72
2024-03-02T00:26:23.196Z,48.03
2024-03-02T00:28:51.797Z,46.42
2024-03-02T00:31:21.566Z,45.97
2024-03-02T00:33:50.135Z,45.40
2024-03-02T00:36:23.656Z,47.17
2024-03-02T00:38:55.568Z,47.17
2024-03-02T00:41:24.817Z,47.15
2024-03-02T00:44:07.189Z,45.83
2024-03-02T00:46:38.936Z,45.90
2024-03-02T00:49:14.000Z,47.25
2024-03-02T00:51:41.377Z,47.38
2024-03-02T00:54:10.652Z,46.53
2024-03-02T00:56:37.818Z,47.35
2024-03-02T00:59:04.944Z,46.15
2024-03-02T01:01:32.170Z,45.65
2024-03-02T01:03:59.970Z,47.97
2024-03-02T01:06:27.174Z,49.25
2024-03-02T01:08:54.355Z,46.85
2024-03-02T01:11:25.042Z,47.35
2024-03-02T01:13:53.911Z,47.17
2024-03-02T01:16:21.742Z,46.58
2024-03-02T01:18:49.548Z,49.65
2024-03-02T01:21:16.916Z,48.60
2024-03-02T01:23:44.587Z,45.25
2024-03-02T01:26:11.639Z,46.47
2024-03-02T01:28:38.672Z,44.20
2024-03-02T01:31:05.789Z,45.10
2024-03-02T01:33:33.008Z,45.35
2024-03-02T01:36:00.064Z,52.15
2024-03-02T01:38:27.103Z,50.38
2024-03-02T01:40:54.274Z,48.25
2024-03-02T01:43:21.293Z,49.80
2024-03-02T01:45:48.383Z,47.95
2024-03-02T01:48:15.614Z,48.13
2024-03-02T01:50:42.793Z,45.50
2024-03-02T01:53:11.286Z,47.92
2024-03-02T01:55:38.330Z,46.42
2024-03-02T01:58:06.088Z,48.05
2024-03-02T02:00:33.956Z,47.13
2024-03-02T02:03:01.151Z,46.50
2024-03-02T02:05:28.279Z,45.53
2024-03-02T02:07:55.457Z,49.05
2024-03-02T02:10:22.582Z,47.15
2024-03-02T02:12:49.760Z,48.13
2024-03-02T02:15:32.425Z,48.40
2024-03-02T02:18:00.723Z,47.35
2024-03-02T02:20:28.085Z,46.97
2024-03-02T02:23:00.000Z,48.00
2024-03-02T02:25:28.140Z,46.72
2024-03-02T02:27:55.730Z,46.88
2024-03-02T02:30:25.765Z,48.45
2024-03-02T02:32:52.980Z,48.45
2024-03-02T02:35:20.263Z,46.60
2024-03-02T02:37:48.964Z,49.42
2024-03-02T02:40:16.302Z,48.25
2024-03-02T02:42:43.556Z,47.78
2024-03-02T02:45:12.174Z,47.90
2024-03-02T02:47:40.054Z,45.90
2024-03-02T02:50:09.044Z,47.38
2024-03-02T02:52:38.174Z,47.70
2024-03-02T02:55:10.657Z,47.97
2024-03-02T02:57:40.236Z,50.08
2024-03-02T03:00:17.067Z,48.42
2024-03-02T03:02:48.807Z,50.22
2024-03-02T03:05:16.913Z,49.97
2024-03-02T03:07:45.900Z,50.20
2024-03-02T03:10:13.397Z,49.53
2024-03-02T03:12:42.381Z,52.08
2024-03-02T03:15:10.880Z,50.45
2024-03-02T03:17:39.001Z,49.13
2024-03-02T03:20:07.455Z,50.88
2024-03-02T03:22:36.592Z,49.53
2024-03-02T03:25:05.068Z,50.17
2024-03-02T03:27:32.256Z,52.22
2024-03-02T03:29:59.484Z,48.85
2024-03-02T03:32:26.526Z,48.42
2024-03-02T03:34:53.671Z,49.53
2024-03-02T03:37:20.712Z,49.22
2024-03-02T03:39:47.804Z,47.28
2024-03-02T03:42:14.876Z,51.30
2024-03-02T03:44:43.329Z,48.13
2024-03-02T03:47:10.424Z,48.65
2024-03-02T03:49:37.451Z,51.63
2024-03-02T03:52:05.494Z,49.88
2024-03-02T03:54:32.593Z,50.60
2024-03-02T03:56:59.836Z,50.15
2024-03-02T03:59:26.960Z,48.50
2024-03-02T04:01:54.915Z,47.60
2024-03-02T04:04:21.951Z,48.45
2024-03-02T04:06:49.137Z,48.90
2024-03-02T04:09:16.303Z,48.50
2024-03-02T04:11:44.200Z,48.30
2024-03-02T04:14:11.282Z,49.70
2024-03-02T04:16:38.259Z,50.10
2024-03-02T04:19:05.475Z,48.42
2024-03-02T04:21:32.880Z,50.97
2024-03-02T04:24:00.812Z,48.65
2024-03-02T04:26:28.033Z,49.72
2024-03-02T04:28:55.415Z,51.55
2024-03-02T04:31:22.824Z,47.72
2024-03-02T04:33:50.044Z,48.70
2024-03-02T04:36:17.227Z,49.45
2024-03-02T04:38:44.321Z,48.78
2024-03-02T04:41:11.412Z,49.33
2024-03-02T04:43:38.420Z,46.30
2024-03-02T04:46:06.384Z,48.22
2024-03-02T04:48:33.662Z,47.70
2024-03-02T04:51:00.898Z,47.40
2024-03-02T04:53:27.957Z,44.97
2024-03-02T04:56:13.820Z,48.15
2024-03-02T04:58:40.952Z,45.38
2024-03-02T05:01:08.015Z,46.95
2024-03-02T05:03:36.201Z,44.85
2024-03-02T05:06:03.405Z,45.42
2024-03-02T05:08:31.033Z,44.42
2024-03-02T05:11:18.066Z,45.47
2024-03-02T05:13:45.160Z,43.60
2024-03-02T05:16:12.810Z,42.03
2024-03-02T05:18:40.188Z,46.45
2024-03-02T05:21:07.408Z,44.70
2024-03-02T05:23:34.581Z,43.17
2024-03-02T05:26:01.693Z,43.55
2024-03-02T05:28:28.745Z,44.50
2024-03-02T05:30:55.903Z,42.50
2024-03-02T05:33:24.322Z,42.13
2024-03-02T05:35:51.449Z,41.88
2024-03-02T05:38:18.532Z,38.88
2024-03-02T05:40:45.672Z,40.45
2024-03-02T05:43:13.290Z,38.92
2024-03-02T05:45:41.074Z,38.97
2024-03-02T05:48:09.314Z,41.45
2024-03-02T05:50:36.817Z,40.05
2024-03-02T05:53:03.996Z,39.85
2024-03-02T05:55:31.391Z,41.20
2024-03-02T05:58:07.426Z,39.97
2024-03-02T06:00:34.867Z,40.38
2024-03-02T06:03:02.029Z,39.88
2024-03-02T06:05:29.061Z,40.58
2024-03-02T06:07:56.099Z,38.58
2024-03-02T06:10:23.134Z,38.92
2024-03-02T06:12:50.153Z,39.60
2024-03-02T06:15:18.392Z,39.15
2024-03-02T06:17:45.473Z,37.78
2024-03-02T06:20:12.705Z,37.55
2024-03-02T06:22:39.800Z,38.22
2024-03-02T06:25:07.267Z,36.63
2024-03-02T06:27:34.577Z,38.45
2024-03-02T06:30:01.649Z,38.17
2024-03-02T06:32:28.736Z,38.60
2024-03-02T06:34:55.753Z,37.17
2024-03-02T06:37:22.781Z,37.65
2024-03-02T06:39:49.840Z,36.40
2024-03-02T06:42:16.894Z,36.85
2024-03-02T06:44:43.904Z,37.03
2024-03-02T06:47:10.992Z,37.17
2024-03-02T06:49:37.996Z,37.70
2024-03-02T06:52:05.272Z,34.55
2024-03-02T06:54:32.405Z,35.45
2024-03-02T06:56:59.443Z,35.45
2024-03-02T06:59:26.527Z,34.35
2024-03-02T07:01:53.617Z,34.17
2024-03-02T07:04:20.716Z,35.63
2024-03-02T07:06:47.933Z,34.47
2024-03-02T07:09:15.104Z,34.08
2024-03-02T07:11:42.727Z,37.15
2024-03-02T07:14:09.820Z,34.33
2024-03-02T07:16:41.279Z,34.28
2024-03-02T07:19:08.490Z,34.42
2024-03-02T07:21:35.684Z,34.30
2024-03-02T07:24:05.563Z,34.05
2024-03-02T07:29:02.916Z,35.42
2024-03-02T07:31:29.952Z,33.83
2024-03-02T07:33:57.009Z,35.22
2024-03-02T07:36:24.230Z,33.47
2024-03-02T07:38:52.188Z,37.60
2024-03-02T07:41:19.422Z,35.50
2024-03-02T07:43:46.520Z,36.35
2024-03-02T07:46:13.888Z,35.95
2024-03-02T07:48:41.082Z,35.78
2024-03-02T07:51:08.243Z,36.15
2024-03-02T07:53:35.275Z,37.47
2024-03-02T07:56:04.075Z,38.95
2024-03-02T07:58:32.481Z,38.00
2024-03-02T08:01:02.764Z,37.95
2024-03-02T08:03:30.607Z,41.72
2024-03-02T08:05:57.701Z,39.58
2024-03-02T08:08:24.748Z,39.55
2024-03-02T08:10:51.904Z,37.65
2024-03-02T08:13:19.014Z,39.15
2024-03-02T08:15:46.191Z,37.88
2024-03-02T08:18:13.371Z,40.45
2024-03-02T08:20:41.444Z,38.80
2024-03-02T08:23:09.509Z,37.88
2024-03-02T08:25:36.652Z,39.33
2024-03-02T08:28:04.016Z,38.58
2024-03-02T08:30:31.478Z,40.60
2024-03-02T08:32:58.537Z,37.20
2024-03-02T08:35:25.639Z,39.35
2024-03-02T08:37:52.864Z,39.88
2024-03-02T08:40:20.066Z,38.90
2024-03-02T08:42:48.323Z,40.80
2024-03-02T08:45:15.824Z,37.45
2024-03-02T08:47:42.897Z,38.15
2024-03-02T08:50:10.267Z,37.70
2024-03-02T08:52:37.586Z,38.45
2024-03-02T08:55:05.125Z,37.90
2024-03-02T08:57:33.203Z,38.85
2024-03-02T09:00:01.449Z,37.55
2024-03-02T09:02:28.497Z,39.13
2024-03-02T09:04:55.662Z,39.78
2024-03-02T09:07:22.916Z,41.00
2024-03-02T09:09:49.988Z,40.40
2024-03-02T09:12:17.341Z,39.05
2024-03-02T09:14:44.579Z,39.70
2024-03-02T09:17:12.773Z,40.88
2024-03-02T09:19:40.941Z,40.50
2024-03-02T09:22:08.148Z,41.05
2024-03-02T09:24:35.246Z,39.95
2024-03-02T09:27:02.513Z,38.20
2024-03-02T09:29:30.811Z,38.55
2024-03-02T09:31:57.796Z,38.35
2024-03-02T09:34:25.034Z,41.40
2024-03-02T09:36:53.519Z,40.92
2024-03-02T09:39:21.610Z,39.75
2024-03-02T09:41:49.683Z,39.45
2024-03-02T09:44:16.857Z,42.50
2024-03-02T09:46:45.602Z,40.70
2024-03-02T09:49:13.039Z,39.58
2024-03-02T09:51:42.078Z,41.80
2024-03-02T09:54:18.002Z,40.90
2024-03-02T09:56:49.257Z,42.30
2024-03-02T09:59:18.867Z,43.42
2024-03-02T10:02:03.348Z,43.78
2024-03-02T10:04:35.321Z,41.47
2024-03-02T10:07:13.281Z,44.20
2024-03-02T10:09:41.240Z,43.92
2024-03-02T10:12:10.213Z,43.40
2024-03-02T10:14:37.310Z,41.25
2024-03-02T10:17:05.870Z,44.33
2024-03-02T10:19:36.471Z,43.42
2024-03-02T10:22:07.314Z,45.25
2024-03-02T10:24:42.443Z,44.90
2024-03-02T10:27:12.238Z,43.00
2024-03-02T10:29:41.345Z,41.47
2024-03-02T10:32:12.905Z,42.50
2024-03-02T10:34:45.449Z,40.53
2024-03-02T10:37:14.454Z,44.97
2024-03-02T10:39:42.340Z,42.13
2024-03-02T10:42:10.818Z,42.10
2024-03-02T10:44:38.022Z,43.92
2024-03-02T10:47:06.801Z,44.53
2024-03-02T10:49:35.219Z,42.75
2024-03-02T10:52:03.615Z,45.25
2024-03-02T10:54:38.366Z,44.50
2024-03-02T10:57:08.621Z,44.85
2024-03-02T10:59:53.411Z,45.45
2024-03-02T11:02:25.256Z,44.95
2024-03-02T11:04:56.549Z,46.47
2024-03-02T11:07:25.784Z,42.92
2024-03-02T11:10:09.880Z,45.47
2024-03-02T11:12:38.448Z,49.42
2024-03-02T11:15:12.184Z,48.63
2024-03-02T11:17:41.917Z,47.20
2024-03-02T11:20:10.367Z,46.58
2024-03-02T11:22:38.514Z,46.42
2024-03-02T11:27:49.435Z,48.10
2024-03-02T11:30:35.661Z,45.85
2024-03-02T11:33:11.863Z,46.95
2024-03-02T11:35:46.860Z,46.70
2024-03-02T11:38:14.008Z,45.45
2024-03-02T11:40:41.612Z,48.95
2024-03-02T11:43:12.205Z,45.22
2024-03-02T11:45:45.481Z,46.45
2024-03-02T11:48:16.606Z,47.47
2024-03-02T11:50:53.788Z,47.20
2024-03-02T11:53:22.298Z,46.08
2024-03-02T11:55:50.718Z,45.25
2024-03-02T11:58:22.125Z,44.60
2024-03-02T12:00:52.971Z,44.25
2024-03-02T12:03:27.131Z,42.72
2024-03-02T12:05:55.579Z,42.70
2024-03-02T12:08:23.330Z,42.22
2024-03-02T12:11:04.608Z,40.60
2024-03-02T12:13:32.741Z,39.72
2024-03-02T12:16:00.515Z,39.13
2024-03-02T12:18:28.191Z,40.35
2024-03-02T12:20:59.255Z,38.53
2024-03-02T12:23:26.565Z,40.10
2024-03-02T12:25:53.858Z,38.28
2024-03-02T12:28:21.204Z,39.13
2024-03-02T12:30:49.358Z,38.08
2024-03-02T12:33:16.714Z,36.45
2024-03-02T12:35:44.034Z,35.50
2024-03-02T12:38:12.447Z,35.58
2024-03-02T12:40:40.013Z,35.83
2024-03-02T12:43:08.286Z,36.65
2024-03-02T12:45:36.690Z,37.42
2024-03-02T12:48:05.897Z,36.92
2024-03-02T12:50:34.184Z,36.25
2024-03-02T12:53:01.508Z,35.95
2024-03-02T12:55:30.639Z,36.47
2024-03-02T12:57:58.495Z,36.65
2024-03-02T13:00:25.643Z,36.10
2024-03-02T13:02:53.327Z,35.38
2024-03-02T13:05:21.594Z,34.42
2024-03-02T13:07:50.481Z,35.95
2024-03-02T13:10:19.516Z,35.85
2024-03-02T13:12:47.564Z,35.95
2024-03-02T13:15:18.210Z,36.40
2024-03-02T13:17:48.806Z,33.17
2024-03-02T13:20:16.574Z,32.72
2024-03-02T13:22:43.779Z,34.22
2024-03-02T13:25:14.183Z,33.60
2024-03-02T13:27:41.374Z,33.40
2024-03-02T13:30:10.889Z,32.10
2024-03-02T13:32:38.372Z,31.85
2024-03-02T13:35:06.439Z,31.98
2024-03-02T13:37:33.929Z,34.20
2024-03-02T13:40:01.095Z,33.35
2024-03-02T13:42:28.955Z,32.65
2024-03-02T13:44:56.461Z,34.25
2024-03-02T13:47:23.679Z,34.15
2024-03-02T13:49:50.934Z,34.80
2024-03-02T13:52:18.583Z,35.38
2024-03-02T13:54:47.547Z,34.15
2024-03-02T13:57:14.919Z,34.15
2024-03-02T13:59:44.374Z,35.90
2024-03-02T14:02:13.808Z,33.90
2024-03-02T14:04:41.240Z,35.63
2024-03-02T14:07:09.456Z,35.75
2024-03-02T14:09:37.470Z,34.90
2024-03-02T14:12:06.774Z,34.22
2024-03-02T14:14:34.208Z,35.65
2024-03-02T14:17:05.014Z,34.70
2024-03-02T14:19:32.752Z,35.03
2024-03-02T14:22:00.487Z,34.90
2024-03-02T14:24:29.568Z,31.95
2024-03-02T14:27:05.537Z,34.55
2024-03-02T14:29:39.371Z,33.92
2024-03-02T14:32:07.378Z,34.90
2024-03-02T14:34:36.862Z,33.30
2024-03-02T14:37:05.061Z,35.00
2024-03-02T14:39:36.173Z,35.22
2024-03-02T14:42:03.857Z,35.15
2024-03-02T14:44:31.131Z,33.70
2024-03-02T14:47:01.428Z,34.88
2024-03-02T14:49:28.718Z,34.53
2024-03-02T14:51:56.474Z,35.90
2024-03-02T14:54:23.693Z,36.97
2024-03-02T14:56:51.597Z,36.80
2024-03-02T14:59:19.141Z,37.10
2024-03-02T15:01:47.560Z,39.60
2024-03-02T15:04:15.914Z,36.38
2024-03-02T15:06:44.429Z,37.72
2024-03-02T15:09:11.587Z,37.20
2024-03-02T15:11:38.729Z,35.22
2024-03-02T15:14:05.842Z,37.95
2024-03-02T15:16:32.966Z,37.33
2024-03-02T15:19:00.008Z,36.92
2024-03-02T15:21:27.186Z,37.08
2024-03-02T15:23:54.238Z,37.75
2024-03-02T15:26:21.524Z,39.53
2024-03-02T15:28:48.579Z,38.60
2024-03-02T15:31:15.781Z,38.70
2024-03-02T15:33:43.512Z,37.35
2024-03-02T15:36:10.634Z,37.60
2024-03-02T15:38:42.417Z,39.38
2024-03-02T15:41:10.499Z,36.03
2024-03-02T15:43:40.803Z,39.05
2024-03-02T15:46:08.711Z,38.63
2024-03-02T15:48:36.117Z,38.25
2024-03-02T15:51:06.783Z,37.80
2024-03-02T15:53:34.399Z,36.70
2024-03-02T15:56:01.560Z,36.58
2024-03-02T15:58:28.741Z,36.20
2024-03-02T16:00:56.432Z,36.22
2024-03-02T16:03:23.461Z,36.95
2024-03-02T16:05:50.489Z,37.17
2024-03-02T16:08:17.622Z,35.70
2024-03-02T16:10:44.723Z,33.97
2024-03-02T16:13:11.766Z,34.85
2024-03-02T16:15:39.156Z,33.72
2024-03-02T16:18:06.699Z,37.97
2024-03-02T16:20:34.860Z,35.50
2024-03-02T16:23:01.947Z,35.55
2024-03-02T16:25:30.236Z,35.00
2024-03-02T16:27:57.322Z,36.00
2024-03-02T16:30:26.382Z,35.58
2024-03-02T16:32:53.454Z,34.92
2024-03-02T16:35:20.417Z,36.33
2024-03-02T16:37:47.495Z,36.88
2024-03-02T16:40:14.858Z,32.63
2024-03-02T16:42:42.530Z,35.28
2024-03-02T16:45:10.334Z,32.70
2024-03-02T16:47:37.423Z,32.92
2024-03-02T16:50:08.087Z,31.83
2024-03-02T16:52:35.557Z,31.00
2024-03-02T16:55:04.909Z,30.45
2024-03-02T16:57:33.041Z,30.85
2024-03-02T17:00:00.559Z,30.55
2024-03-02T17:02:27.787Z,31.73
2024-03-02T17:04:55.082Z,30.75
2024-03-02T17:07:22.471Z,29.85
2024-03-02T17:09:50.029Z,31.27
2024-03-02T17:12:17.116Z,28.35
2024-03-02T17:14:44.196Z,32.03
2024-03-02T17:17:11.277Z,31.15
2024-03-02T17:19:38.261Z,31.85
2024-03-02T17:22:05.546Z,32.03
2024-03-02T17:24:32.589Z,29.90
2024-03-02T17:26:59.814Z,30.27
2024-03-02T17:29:26.896Z,30.15
2024-03-02T17:31:54.081Z,38.38
2024-03-02T17:34:21.153Z,34.08
2024-03-02T17:36:48.326Z,30.92
2024-03-02T17:39:15.676Z,32.58
2024-03-02T17:41:43.110Z,31.33
2024-03-02T17:44:11.649Z,31.10
2024-03-02T17:46:39.064Z,30.35
2024-03-02T17:49:06.239Z,31.70
2024-03-02T17:51:33.548Z,30.95
2024-03-02T17:54:00.601Z,31.42
2024-03-02T17:56:29.299Z,31.83
2024-03-02T17:58:56.527Z,30.83
2024-03-02T18:01:23.674Z,31.50
2024-03-02T18:03:51.278Z,31.73
2024-03-02T18:06:18.472Z,31.35
2024-03-02T18:08:46.024Z,31.58
2024-03-02T18:11:18.362Z,31.42
2024-03-02T18:13:46.502Z,31.42
2024-03-02T18:16:19.109Z,33.97
2024-03-02T18:18:49.459Z,30.85
2024-03-02T18:21:16.859Z,31.95
2024-03-02T18:23:44.141Z,32.30
2024-03-02T18:26:11.607Z,30.80
2024-03-02T18:28:40.902Z,31.50
2024-03-02T18:31:08.430Z,32.05
2024-03-02T18:33:35.997Z,32.25
2024-03-02T18:36:05.451Z,31.35
2024-03-02T18:38:33.116Z,32.17
2024-03-02T18:41:00.829Z,31.42
2024-03-02T18:43:27.879Z,31.17
2024-03-02T18:45:57.023Z,30.17
2024-03-02T18:48:24.541Z,32.10
2024-03-02T18:50:51.910Z,32.05
2024-03-02T18:53:19.051Z,31.73
2024-03-02T18:55:46.487Z,32.83
2024-03-02T18:58:14.055Z,31.05
2024-03-02T19:00:41.951Z,31.40
2024-03-02T19:03:11.176Z,30.88
2024-03-02T19:05:39.316Z,30.30
2024-03-02T19:08:06.755Z,32.85
2024-03-02T19:10:33.847Z,32.88
2024-03-02T19:13:01.570Z,30.65
2024-03-02T19:15:29.061Z,31.35
2024-03-02T19:17:56.225Z,31.45
2024-03-02T19:20:25.040Z,32.08
2024-03-02T19:22:54.170Z,32.72
2024-03-02T19:25:22.911Z,30.50
2024-03-02T19:27:50.464Z,31.65
2024-03-02T19:30:17.646Z,31.17
2024-03-02T19:32:44.815Z,34.30
2024-03-02T19:35:15.249Z,31.30
2024-03-02T19:37:42.727Z,31.65
2024-03-02T19:40:11.551Z,32.22
2024-03-02T19:42:39.347Z,31.73
2024-03-02T19:45:07.026Z,32.83
2024-03-02T19:47:34.516Z,30.65
2024-03-02T19:50:02.151Z,28.42
2024-03-02T19:52:29.892Z,29.85
2024-03-02T19:54:57.111Z,28.40
2024-03-02T19:57:26.932Z,31.80
2024-03-02T19:59:54.027Z,28.25
2024-03-02T20:02:23.445Z,29.55
2024-03-02T20:04:50.793Z,29.30
2024-03-02T20:07:18.557Z,28.67
2024-03-02T20:09:45.871Z,29.90
2024-03-02T20:12:13.109Z,30.23
2024-03-02T20:14:40.937Z,29.83
2024-03-02T20:17:08.010Z,30.55
2024-03-02T20:19:39.472Z,30.35
2024-03-02T20:22:07.489Z,30.10
2024-03-02T20:24:35.322Z,31.52
2024-03-02T20:27:06.161Z,31.33
2024-03-02T20:29:33.758Z,29.52
2024-03-02T20:32:01.665Z,30.05
2024-03-02T20:34:28.953Z,30.70
2024-03-02T20:36:57.919Z,29.85
2024-03-02T20:39:25.715Z,31.15
2024-03-02T20:41:52.880Z,29.83
2024-03-02T20:44:24.920Z,31.67
2024-03-02T20:46:55.102Z,33.20
2024-03-02T20:49:22.806Z,30.88
2024-03-02T20:51:50.856Z,31.23
2024-03-02T20:54:18.068Z,30.90
2024-03-02T20:56:45.176Z,32.25
2024-03-02T20:59:12.493Z,30.98
2024-03-02T21:01:39.659Z,32.22
2024-03-02T21:04:06.916Z,32.55
2024-03-02T21:06:34.456Z,30.75
2024-03-02T21:09:02.120Z,30.15
2024-03-02T21:11:29.314Z,32.28
2024-03-02T21:13:57.522Z,30.92
2024-03-02T21:16:25.169Z,31.85
2024-03-02T21:18:52.580Z,30.58
2024-03-02T21:21:19.729Z,32.17
2024-03-02T21:23:46.938Z,31.92
2024-03-02T21:26:14.340Z,32.60
2024-03-02T21:28:41.492Z,32.25
2024-03-02T21:31:08.619Z,30.90
2024-03-02T21:33:35.740Z,31.17
2024-03-02T21:36:03.903Z,32.72
2024-03-02T21:38:31.482Z,31.27
2024-03-02T21:40:59.338Z,33.22
2024-03-02T21:43:27.709Z,31.15
2024-03-02T21:45:55.492Z,30.90
2024-03-02T21:48:23.472Z,31.63
2024-03-02T21:50:50.496Z,29.38
2024-03-02T21:53:17.557Z,32.55
2024-03-02T21:55:45.301Z,32.00
2024-03-02T21:58:13.018Z,31.02
2024-03-02T22:00:40.837Z,31.40
2024-03-02T22:03:07.988Z,31.45
2024-03-02T22:05:36.213Z,31.10
2024-03-02T22:08:03.442Z,30.65
2024-03-02T22:10:31.053Z,31.88
2024-03-02T22:12:58.391Z,31.38
2024-03-02T22:15:25.506Z,30.80
2024-03-02T22:17:53.338Z,31.25
2024-03-02T22:20:20.459Z,32.63
2024-03-02T22:22:47.404Z,32.85
2024-03-02T22:25:14.614Z,32.63
2024-03-02T22:27:42.484Z,33.28
2024-03-02T22:30:12.257Z,33.38
2024-03-02T22:32:39.444Z,34.17
2024-03-02T22:35:06.832Z,35.67
2024-03-02T22:37:33.868Z,35.60
2024-03-02T22:40:00.989Z,34.17
2024-03-02T22:42:29.196Z,34.88
2024-03-02T22:44:57.934Z,33.60
2024-03-02T22:47:25.023Z,34.83
2024-03-02T22:49:55.253Z,35.75
2024-03-02T22:52:22.695Z,33.90
2024-03-02T22:54:49.861Z,35.42
2024-03-02T22:57:20.304Z,35.70
2024-03-02T22:59:51.115Z,35.90
2024-03-02T23:02:19.110Z,35.95
2024-03-02T23:04:46.246Z,36.20
2024-03-02T23:07:20.016Z,37.13
2024-03-02T23:09:47.401Z,36.03
2024-03-02T23:12:15.496Z,38.35
2024-03-02T23:14:42.646Z,38.53
2024-03-02T23:17:09.730Z,38.67
2024-03-02T23:19:37.064Z,36.90
2024-03-02T23:22:06.569Z,39.20
2024-03-02T23:24:34.938Z,36.28
2024-03-02T23:27:01.977Z,39.67
2024-03-02T23:29:29.004Z,38.90
2024-03-02T23:31:56.039Z,37.25
2024-03-02T23:34:23.159Z,37.90
2024-03-02T23:36:50.360Z,38.78
2024-03-02T23:39:36.216Z,37.63
2024-03-02T23:42:03.395Z,36.30
2024-03-02T23:44:30.531Z,39.13
2024-03-02T23:46:57.650Z,36.65
2024-03-02T23:49:24.738Z,40.97
2024-03-02T23:51:51.889Z,38.70
2024-03-02T23:54:19.008Z,39.08
2024-03-02T23:56:46.114Z,40.33
2024-03-02T23:59:13.656Z,40.47
